createdAt,value
2023-03-05T00:00:05.610Z,100036.75
2023-03-05T00:03:15.313Z,100038.66
2023-03-05T00:06:19.218Z,100034.09
2023-03-05T00:09:21.830Z,100030.91
2023-03-05T00:12:24.422Z,100025.56
2023-03-05T00:15:26.826Z,100029.31
2023-03-05T00:18:29.285Z,100031.44
2023-03-05T00:21:38.064Z,100034.66
2023-03-05T00:24:40.522Z,100031.19
2023-03-05T00:27:42.806Z,100041.63
2023-03-05T00:30:45.738Z,100040.56
2023-03-05T00:33:53.354Z,100035.19
2023-03-05T00:36:55.955Z,100027.16
2023-03-05T00:39:58.772Z,100027.72
2023-03-05T00:43:01.404Z,100025.28
2023-03-05T00:46:04.269Z,100029.03
2023-03-05T00:49:07.348Z,100023.91
2023-03-05T00:52:09.562Z,100022.88
2023-03-05T00:55:12.477Z,100013.78
2023-03-05T00:58:15.273Z,100017.03
2023-03-05T01:01:17.734Z,100019.69
2023-03-05T01:04:19.892Z,100019.69
2023-03-05T01:07:22.380Z,100011.44
2023-03-05T01:10:28.044Z,100019.19
2023-03-05T01:13:30.535Z,100023.72
2023-03-05T01:16:32.873Z,100017.03
2023-03-05T01:19:35.572Z,100016.78
2023-03-05T01:22:37.728Z,100011.41
2023-03-05T01:25:40.812Z,100009.56
2023-03-05T01:28:43.132Z,100001.53
2023-03-05T01:31:45.746Z,100016.50
2023-03-05T01:34:48.150Z,100014.34
2023-03-05T01:37:51.046Z,100004.50
2023-03-05T01:40:53.508Z,100014.34
2023-03-05T01:43:56.172Z,100009.28
2023-03-05T01:46:58.525Z,100011.97
2023-03-05T01:50:01.682Z,99997.25
2023-03-05T01:53:07.344Z,100003.66
2023-03-05T01:56:10.105Z,99997.53
2023-03-05T01:59:14.073Z,100002.34
2023-03-05T02:02:17.422Z,100001.81
2023-03-05T02:05:27.043Z,99994.88
2023-03-05T02:08:29.399Z,99998.31
2023-03-05T02:11:33.497Z,99998.88
2023-03-05T02:14:36.724Z,100007.44
2023-03-05T02:17:40.088Z,100009.03
2023-03-05T02:20:56.317Z,100008.50
2023-03-05T02:23:58.540Z,100011.16
2023-03-05T02:27:04.822Z,100005.53
2023-03-05T02:30:07.566Z,100001.53
2023-03-05T02:33:10.049Z,100002.06
2023-03-05T02:36:13.028Z,100001.28
2023-03-05T02:39:16.239Z,99999.16
2023-03-05T02:42:18.580Z,99996.19
2023-03-05T02:45:21.534Z,99995.63
2023-03-05T02:48:25.108Z,99998.53
2023-03-05T02:51:27.927Z,100004.69
2023-03-05T02:54:30.680Z,100000.97
2023-03-05T02:57:33.149Z,99998.03
2023-03-05T03:00:36.472Z,99995.63
2023-03-05T03:03:39.003Z,99998.28
2023-03-05T03:06:44.801Z,99987.34
2023-03-05T03:09:47.332Z,99989.22
2023-03-05T03:12:49.490Z,99993.19
2023-03-05T03:16:04.074Z,100000.41
2023-03-05T03:19:06.351Z,99996.44
2023-03-05T03:22:12.152Z,100002.59
2023-03-05T03:25:16.441Z,99994.31
2023-03-05T03:28:19.009Z,99994.56
2023-03-05T03:31:21.442Z,99982.31
2023-03-05T03:34:24.124Z,99982.31
2023-03-05T03:37:26.377Z,99984.72
2023-03-05T03:40:28.953Z,99983.34
2023-03-05T03:43:31.258Z,99975.91
2023-03-05T03:46:33.812Z,99991.66
2023-03-05T03:49:36.053Z,99977.22
2023-03-05T03:52:38.681Z,99981.75
2023-03-05T03:55:43.043Z,99986.06
2023-03-05T03:58:45.483Z,99988.75
2023-03-05T04:01:47.842Z,99986.81
2023-03-05T04:04:50.700Z,99992.50
2023-03-05T04:07:53.177Z,99980.72
2023-03-05T04:10:55.547Z,99980.72
2023-03-05T04:13:57.867Z,99984.75
2023-03-05T04:17:00.418Z,99980.75
2023-03-05T04:20:02.945Z,99983.41
2023-03-05T04:23:07.982Z,99976.72
2023-03-05T04:26:10.317Z,99983.41
2023-03-05T04:29:14.881Z,99978.59
2023-03-05T04:32:23.121Z,99977.78
2023-03-05T04:35:26.598Z,99970.31
2023-03-05T04:38:28.837Z,99972.44
2023-03-05T04:41:32.470Z,99975.91
2023-03-05T04:44:34.650Z,99981.81
2023-03-05T04:47:37.468Z,99975.91
2023-03-05T04:50:40.112Z,99973.78
2023-03-05T04:53:42.544Z,99961.50
2023-03-05T04:56:44.779Z,99972.72
2023-03-05T04:59:47.311Z,99972.16
2023-03-05T05:02:51.183Z,99963.91
2023-03-05T05:05:58.783Z,99966.03
2023-03-05T05:09:03.521Z,99963.91
2023-03-05T05:12:07.180Z,99963.63
2023-03-05T05:15:10.161Z,99972.16
2023-03-05T05:18:12.669Z,99961.22
2023-03-05T05:21:15.983Z,99959.88
2023-03-05T05:24:18.428Z,99970.84
2023-03-05T05:27:21.263Z,99966.28
2023-03-05T05:30:23.998Z,99966.28
2023-03-05T05:33:27.395Z,99977.25
2023-03-05T05:36:30.024Z,99977.50
2023-03-05T05:39:32.286Z,99976.13
2023-03-05T05:42:34.996Z,99969.19
2023-03-05T05:45:40.804Z,99971.88
2023-03-05T05:48:44.548Z,99976.13
2023-03-05T05:51:46.694Z,99982.31
2023-03-05T05:54:49.537Z,99994.88
2023-03-05T05:57:51.777Z,100004.22
2023-03-05T06:00:54.213Z,100008.50
2023-03-05T06:03:57.295Z,100006.09
2023-03-05T06:07:00.177Z,100008.72
2023-03-05T06:10:03.252Z,99997.22
2023-03-05T06:13:05.672Z,100004.19
2023-03-05T06:16:11.852Z,100003.66
2023-03-05T06:19:15.805Z,100003.09
2023-03-05T06:22:18.202Z,100012.94
2023-03-05T06:25:20.530Z,100003.56
2023-03-05T06:28:22.999Z,100007.06
2023-03-05T06:31:27.196Z,100011.38
2023-03-05T06:34:29.690Z,100005.47
2023-03-05T06:37:31.809Z,100007.84
2023-03-05T06:40:34.905Z,100003.81
2023-03-05T06:43:39.015Z,100008.09
2023-03-05T06:46:41.459Z,100009.44
2023-03-05T06:49:43.586Z,100006.78
2023-03-05T06:52:49.391Z,100007.06
2023-03-05T06:55:52.610Z,100008.94
2023-03-05T06:58:55.117Z,100007.84
2023-03-05T07:01:57.296Z,100013.78
2023-03-05T07:04:59.708Z,100002.75
2023-03-05T07:08:04.129Z,100009.97
2023-03-05T07:11:11.851Z,100010.22
2023-03-05T07:14:14.037Z,100011.00
2023-03-05T07:17:16.533Z,100004.56
2023-03-05T07:20:18.659Z,100013.34
2023-03-05T07:23:21.184Z,100002.34
2023-03-05T07:26:23.972Z,99994.88
2023-03-05T07:29:27.648Z,100005.56
2023-03-05T07:32:29.908Z,100001.25
2023-03-05T07:35:32.350Z,100008.66
2023-03-05T07:38:35.211Z,99998.47
2023-03-05T07:41:39.017Z,100002.97
2023-03-05T07:44:41.149Z,99998.88
2023-03-05T07:47:43.677Z,100001.50
2023-03-05T07:50:45.803Z,100002.81
2023-03-05T07:53:50.531Z,100006.03
2023-03-05T07:56:54.681Z,99992.63
2023-03-05T07:59:57.250Z,99994.47
2023-03-05T08:02:59.372Z,99993.34
2023-03-05T08:06:05.720Z,99986.66
2023-03-05T08:09:07.914Z,99991.44
2023-03-05T08:12:10.444Z,99989.50
2023-03-05T08:15:12.612Z,99987.06
2023-03-05T08:18:18.580Z,99987.53
2023-03-05T08:21:33.798Z,99992.16
2023-03-05T08:24:36.364Z,100003.19
2023-03-05T08:27:40.705Z,99998.84
2023-03-05T08:30:43.151Z,99997.41
2023-03-05T08:33:45.400Z,99999.50
2023-03-05T08:36:48.966Z,99998.28
2023-03-05T08:39:51.317Z,99993.13
2023-03-05T08:42:53.744Z,99991.88
2023-03-05T08:45:55.908Z,99997.69
2023-03-05T08:48:58.444Z,99984.22
2023-03-05T08:52:00.565Z,100002.94
2023-03-05T08:55:03.241Z,99993.97
2023-03-05T08:58:05.454Z,99988.91
2023-03-05T09:01:07.910Z,99981.44
2023-03-05T09:04:10.137Z,99985.78
2023-03-05T09:07:13.085Z,99977.34
2023-03-05T09:10:15.340Z,99976.09
2023-03-05T09:13:17.952Z,99980.09
2023-03-05T09:16:20.429Z,99983.28
2023-03-05T09:19:22.984Z,99983.72
2023-03-05T09:22:25.151Z,99981.94
2023-03-05T09:25:27.647Z,99970.87
2023-03-05T09:28:29.795Z,99978.34
2023-03-05T09:31:32.317Z,99973.84
2023-03-05T09:34:34.640Z,99972.81
2023-03-05T09:37:37.202Z,99972.81
2023-03-05T09:40:45.578Z,99972.31
2023-03-05T09:44:17.685Z,99972.81
2023-03-05T09:47:32.059Z,99976.13
2023-03-05T09:50:45.342Z,99966.19
2023-03-05T09:53:52.810Z,99962.84
2023-03-05T09:56:58.216Z,99961.88
2023-03-05T10:00:08.896Z,99957.63
2023-03-05T10:03:28.294Z,99947.37
2023-03-05T10:06:32.099Z,99942.44
2023-03-05T10:09:54.729Z,99942.19
2023-03-05T10:13:01.984Z,99948.56
2023-03-05T10:16:22.822Z,99947.63
2023-03-05T10:19:28.118Z,99939.72
2023-03-05T10:22:49.769Z,99951.19
2023-03-05T10:25:56.876Z,99941.91
2023-03-05T10:29:11.546Z,99936.28
2023-03-05T10:32:41.874Z,99934.22
2023-03-05T10:36:13.041Z,99927.25
2023-03-05T10:39:46.803Z,99925.59
2023-03-05T10:42:57.676Z,99924.34
2023-03-05T10:46:01.584Z,99915.41
2023-03-05T10:49:20.539Z,99923.63
2023-03-05T10:52:48.508Z,99937.19
2023-03-05T10:55:56.048Z,99922.72
2023-03-05T10:58:58.588Z,99918.41
2023-03-05T11:02:08.683Z,99923.97
2023-03-05T11:05:40.725Z,99911.66
2023-03-05T11:08:42.873Z,99916.94
2023-03-05T11:12:13.388Z,99901.34
2023-03-05T11:15:15.422Z,99897.41
2023-03-05T11:18:22.159Z,99901.19
2023-03-05T11:21:29.205Z,99893.06
2023-03-05T11:24:31.690Z,99888.84
2023-03-05T11:27:37.939Z,99894.28
2023-03-05T11:30:40.768Z,99893.47
2023-03-05T11:33:57.082Z,99886.28
2023-03-05T11:37:03.893Z,99884.03
2023-03-05T11:40:22.480Z,99874.97
2023-03-05T11:43:25.960Z,99876.38
2023-03-05T11:46:29.649Z,99862.03
2023-03-05T11:49:34.873Z,99857.56
2023-03-05T11:52:54.058Z,99850.53
2023-03-05T11:56:03.420Z,99856.84
2023-03-05T11:59:29.044Z,99861.63
2023-03-05T12:02:31.666Z,99850.78
2023-03-05T12:05:37.100Z,99853.94
2023-03-05T12:08:45.079Z,99852.34
2023-03-05T12:11:55.952Z,99852.53
2023-03-05T12:15:49.582Z,99828.19
2023-03-05T12:19:05.701Z,99825.09
2023-03-05T12:22:17.416Z,99822.31
2023-03-05T12:25:34.916Z,99817.13
2023-03-05T12:28:43.201Z,99805.38
2023-03-05T12:31:45.822Z,99802.06
2023-03-05T12:34:56.003Z,99801.00
2023-03-05T12:38:06.190Z,99796.38
2023-03-05T12:41:27.474Z,99790.50
2023-03-05T12:44:30.489Z,99790.94
2023-03-05T12:47:32.656Z,99782.22
2023-03-05T12:50:37.786Z,99772.87
2023-03-05T12:53:40.009Z,99763.22
2023-03-05T12:56:47.159Z,99763.75
2023-03-05T13:00:01.397Z,99761.66
2023-03-05T13:03:10.022Z,99764.47
2023-03-05T13:06:30.072Z,99758.47
2023-03-05T13:09:36.235Z,99768.31
2023-03-05T13:12:39.274Z,99771.66
2023-03-05T13:15:46.556Z,99774.03
2023-03-05T13:18:49.803Z,99779.25
2023-03-05T13:22:01.677Z,99779.06
2023-03-05T13:25:16.109Z,99780.06
2023-03-05T13:28:18.578Z,99760.34
2023-03-05T13:31:23.012Z,99775.59
2023-03-05T13:34:44.694Z,99771.72
2023-03-05T13:37:49.455Z,99769.22
2023-03-05T13:41:05.205Z,99756.31
2023-03-05T13:44:21.768Z,99765.75
2023-03-05T13:47:28.411Z,99759.38
2023-03-05T13:50:32.049Z,99763.75
2023-03-05T13:53:34.833Z,99764.56
2023-03-05T13:56:36.977Z,99758.47
2023-03-05T13:59:39.393Z,99756.19
2023-03-05T14:02:43.996Z,99756.19
2023-03-05T14:05:47.481Z,99767.63
2023-03-05T14:08:55.055Z,99782.66
2023-03-05T14:12:18.940Z,99748.81
2023-03-05T14:15:22.600Z,99742.75
2023-03-05T14:18:25.077Z,99729.22
2023-03-05T14:21:47.643Z,99732.41
2023-03-05T14:24:53.233Z,99740.28
2023-03-05T14:27:56.828Z,99730.50
2023-03-05T14:30:59.468Z,99730.03
2023-03-05T14:34:05.208Z,99719.97
2023-03-05T14:37:38.892Z,99708.94
2023-03-05T14:40:41.028Z,99703.06
2023-03-05T14:43:43.607Z,99706.25
2023-03-05T14:46:49.953Z,99704.25
2023-03-05T14:49:52.644Z,99718.97
2023-03-05T14:52:58.140Z,99719.66
2023-03-05T14:56:00.631Z,99718.75
2023-03-05T14:59:02.864Z,99726.41
2023-03-05T15:02:13.694Z,99710.72
2023-03-05T15:05:17.251Z,99714.75
2023-03-05T15:08:24.947Z,99716.88
2023-03-05T15:11:27.180Z,99712.16
2023-03-05T15:14:29.555Z,99704.13
2023-03-05T15:17:37.224Z,99718.87
2023-03-05T15:20:40.612Z,99714.66
2023-03-05T15:23:44.597Z,99711.19
2023-03-05T15:26:48.692Z,99714.53
2023-03-05T15:29:52.304Z,99716.72
2023-03-05T15:32:55.989Z,99723.75
2023-03-05T15:35:58.720Z,99715.72
2023-03-05T15:39:01.184Z,99721.03
2023-03-05T15:42:05.347Z,99716.69
2023-03-05T15:45:09.273Z,99724.03
2023-03-05T15:48:11.899Z,99720.84
2023-03-05T15:51:14.371Z,99723.53
2023-03-05T15:54:16.580Z,99721.97
2023-03-05T15:57:23.957Z,99728.38
2023-03-05T16:00:30.404Z,99726.56
2023-03-05T16:03:32.870Z,99726.87
2023-03-05T16:06:35.297Z,99726.13
2023-03-05T16:09:46.191Z,99729.31
2023-03-05T16:12:53.412Z,99733.72
2023-03-05T16:15:58.137Z,99737.50
2023-03-05T16:19:00.655Z,99747.25
2023-03-05T16:22:03.101Z,99746.88
2023-03-05T16:25:05.599Z,99749.56
2023-03-05T16:28:08.350Z,99750.84
2023-03-05T16:31:10.825Z,99746.22
2023-03-05T16:34:14.160Z,99746.81
2023-03-05T16:37:22.254Z,99752.22
2023-03-05T16:40:27.008Z,99756.78
2023-03-05T16:43:29.293Z,99750.41
2023-03-05T16:46:34.021Z,99762.22
2023-03-05T16:49:37.358Z,99758.44
2023-03-05T16:52:39.853Z,99748.72
2023-03-05T16:55:42.211Z,99751.38
2023-03-05T16:58:44.821Z,99758.25
2023-03-05T17:01:46.997Z,99758.16
2023-03-05T17:04:50.386Z,99753.38
2023-03-05T17:07:53.595Z,99759.16
2023-03-05T17:10:57.717Z,99763.63
2023-03-05T17:13:59.941Z,99756.63
2023-03-05T17:17:02.408Z,99763.28
2023-03-05T17:20:06.018Z,99746.56
2023-03-05T17:23:08.487Z,99757.75
2023-03-05T17:26:15.663Z,99760.72
2023-03-05T17:29:19.228Z,99764.22
2023-03-05T17:32:21.720Z,99765.22
2023-03-05T17:35:24.118Z,99770.66
2023-03-05T17:38:27.041Z,99770.75
2023-03-05T17:41:29.244Z,99766.22
2023-03-05T17:44:31.669Z,99763.66
2023-03-05T17:47:34.756Z,99777.81
2023-03-05T17:50:37.459Z,99785.50
2023-03-05T17:53:40.335Z,99779.53
2023-03-05T17:56:42.841Z,99774.53
2023-03-05T17:59:45.392Z,99781.13
2023-03-05T18:02:48.321Z,99781.69
2023-03-05T18:05:51.057Z,99770.03
2023-03-05T18:08:53.243Z,99766.94
2023-03-05T18:11:56.293Z,99776.09
2023-03-05T18:14:58.532Z,99767.94
2023-03-05T18:18:00.976Z,99761.34
2023-03-05T18:21:03.290Z,99763.16
2023-03-05T18:24:06.089Z,99763.44
2023-03-05T18:27:08.287Z,99754.44
2023-03-05T18:30:11.391Z,99753.09
2023-03-05T18:33:23.000Z,99761.66
2023-03-05T18:36:25.431Z,99761.34
2023-03-05T18:39:33.346Z,99761.66
2023-03-05T18:42:36.869Z,99762.69
2023-03-05T18:45:39.437Z,99759.75
2023-03-05T18:48:42.036Z,99762.75
2023-03-05T18:51:45.676Z,99753.59
2023-03-05T18:54:48.149Z,99754.41
2023-03-05T18:57:50.864Z,99759.06
2023-03-05T19:00:53.280Z,99748.84
2023-03-05T19:03:55.634Z,99745.06
2023-03-05T19:06:58.190Z,99752.84
2023-03-05T19:10:07.282Z,99746.19
2023-03-05T19:13:44.026Z,99750.50
2023-03-05T19:16:46.183Z,99748.06
2023-03-05T19:19:57.948Z,99754.75
2023-03-05T19:23:00.186Z,99755.34
2023-03-05T19:26:03.729Z,99750.00
2023-03-05T19:29:07.486Z,99756.38
2023-03-05T19:32:16.004Z,99755.63
2023-03-05T19:35:18.525Z,99752.09
2023-03-05T19:38:20.988Z,99763.59
2023-03-05T19:41:23.408Z,99747.84
2023-03-05T19:44:26.366Z,99752.94
2023-03-05T19:47:28.513Z,99747.91
2023-03-05T19:50:32.317Z,99747.63
2023-03-05T19:53:35.825Z,99746.81
2023-03-05T19:56:39.253Z,99745.78
2023-03-05T19:59:43.965Z,99745.56
2023-03-05T20:02:48.485Z,99743.75
2023-03-05T20:05:50.982Z,99741.87
2023-03-05T20:08:53.205Z,99741.87
2023-03-05T20:11:57.778Z,99747.47
2023-03-05T20:15:00.161Z,99741.56
2023-03-05T20:18:02.697Z,99737.62
2023-03-05T20:21:05.200Z,99738.19
2023-03-05T20:24:11.747Z,99740.31
2023-03-05T20:27:15.415Z,99739.81
2023-03-05T20:30:18.116Z,99733.13
2023-03-05T20:33:20.312Z,99737.44
2023-03-05T20:36:24.136Z,99735.41
2023-03-05T20:39:26.339Z,99746.66
2023-03-05T20:42:28.804Z,99740.47
2023-03-05T20:45:30.966Z,99736.72
2023-03-05T20:48:34.273Z,99745.00
2023-03-05T20:51:38.062Z,99737.00
2023-03-05T20:54:40.531Z,99732.53
2023-03-05T20:57:44.061Z,99730.38
2023-03-05T21:00:46.630Z,99730.69
2023-03-05T21:03:49.714Z,99724.03
2023-03-05T21:06:53.161Z,99724.81
2023-03-05T21:09:55.678Z,99726.44
2023-03-05T21:13:00.770Z,99729.09
2023-03-05T21:16:08.540Z,99724.34
2023-03-05T21:19:11.031Z,99730.19
2023-03-05T21:22:13.282Z,99730.69
2023-03-05T21:25:25.082Z,99722.16
2023-03-05T21:28:28.817Z,99725.63
2023-03-05T21:31:31.327Z,99721.06
2023-03-05T21:34:33.807Z,99721.53
2023-03-05T21:37:42.360Z,99726.13
2023-03-05T21:40:45.764Z,99723.69
2023-03-05T21:43:48.464Z,99726.13
2023-03-05T21:46:51.552Z,99720.50
2023-03-05T21:49:54.039Z,99726.87
2023-03-05T21:52:56.282Z,99717.78
2023-03-05T21:56:30.944Z,99718.63
2023-03-05T21:59:33.254Z,99721.53
2023-03-05T22:02:36.635Z,99712.97
2023-03-05T22:05:42.761Z,99715.09
2023-03-05T22:08:45.048Z,99709.56
2023-03-05T22:11:47.738Z,99707.12
2023-03-05T22:14:49.929Z,99705.56
2023-03-05T22:17:52.363Z,99703.34
2023-03-05T22:20:55.272Z,99701.53
2023-03-05T22:23:58.478Z,99698.56
2023-03-05T22:27:01.931Z,99693.34
2023-03-05T22:30:05.478Z,99696.03
2023-03-05T22:33:07.787Z,99700.09
2023-03-05T22:36:11.891Z,99692.91
2023-03-05T22:39:14.091Z,99688.91
2023-03-05T22:42:16.569Z,99693.12
2023-03-05T22:45:19.185Z,99683.50
2023-03-05T22:48:21.618Z,99688.06
2023-03-05T22:51:23.969Z,99687.50
2023-03-05T22:54:26.549Z,99676.78
2023-03-05T22:57:29.486Z,99678.16
2023-03-05T23:00:31.949Z,99677.34
2023-03-05T23:03:34.096Z,99684.50
2023-03-05T23:06:36.693Z,99682.09
2023-03-05T23:09:38.875Z,99677.25
2023-03-05T23:12:46.100Z,99679.13
2023-03-05T23:15:48.324Z,99679.91
2023-03-05T23:18:50.795Z,99679.91
2023-03-05T23:21:53.045Z,99675.06
2023-03-05T23:24:55.527Z,99671.59
2023-03-05T23:27:58.616Z,99676.16
2023-03-05T23:31:02.233Z,99677.50
2023-03-05T23:34:04.471Z,99676.19
2023-03-05T23:37:06.934Z,99677.25
2023-03-05T23:40:13.453Z,99665.47
2023-03-05T23:43:18.088Z,99670.00
2023-03-05T23:46:20.289Z,99672.16
2023-03-05T23:49:22.791Z,99668.41
2023-03-05T23:52:24.921Z,99658.78
2023-03-05T23:55:31.743Z,99661.19
2023-03-05T23:58:35.424Z,99668.66
